createdAt,value
2022-12-03T00:00:10.457Z,12.88
2022-12-03T00:02:39.170Z,13.43
2022-12-03T00:05:06.172Z,14.18
2022-12-03T00:07:36.235Z,13.00
2022-12-03T00:10:04.020Z,12.90
2022-12-03T00:12:30.691Z,13.25
2022-12-03T00:14:57.550Z,13.10
2022-12-03T00:17:24.445Z,13.23
2022-12-03T00:19:51.099Z,13.45
2022-12-03T00:22:17.801Z,12.98
2022-12-03T00:24:44.511Z,13.27
2022-12-03T00:27:11.274Z,14.13
2022-12-03T00:29:37.960Z,13.85
2022-12-03T00:32:04.833Z,13.88
2022-12-03T00:34:31.575Z,13.88
2022-12-03T00:36:58.282Z,14.38
2022-12-03T00:39:25.036Z,14.15
2022-12-03T00:41:51.709Z,14.35
2022-12-03T00:44:18.384Z,14.65
2022-12-03T00:46:45.086Z,14.82
2022-12-03T00:49:11.780Z,13.57
2022-12-03T00:51:38.483Z,14.60
2022-12-03T00:54:05.199Z,14.10
2022-12-03T00:56:31.922Z,13.73
2022-12-03T00:58:58.724Z,14.93
2022-12-03T01:01:25.528Z,13.35
2022-12-03T01:03:52.263Z,13.75
2022-12-03T01:06:18.981Z,14.32
2022-12-03T01:08:45.683Z,12.90
2022-12-03T01:11:30.919Z,13.63
2022-12-03T01:13:58.263Z,13.60
2022-12-03T01:16:24.995Z,13.48
2022-12-03T01:18:52.827Z,14.15
2022-12-03T01:21:20.299Z,14.30
2022-12-03T01:23:47.155Z,13.23
2022-12-03T01:26:13.946Z,14.25
2022-12-03T01:28:42.087Z,14.13
2022-12-03T01:31:28.337Z,13.85
2022-12-03T01:33:55.094Z,14.55
2022-12-03T01:36:21.749Z,14.10
2022-12-03T01:38:51.309Z,14.60
2022-12-03T01:41:19.332Z,14.90
2022-12-03T01:43:47.089Z,14.85
2022-12-03T01:46:21.696Z,14.48
2022-12-03T01:48:50.658Z,14.10
2022-12-03T01:51:17.606Z,14.07
2022-12-03T01:53:44.784Z,13.88
2022-12-03T01:56:15.799Z,13.40
2022-12-03T01:58:44.100Z,14.40
2022-12-03T02:01:14.409Z,14.50
2022-12-03T02:06:22.814Z,14.52
2022-12-03T02:08:49.979Z,14.38
2022-12-03T02:11:29.841Z,13.98
2022-12-03T02:14:02.503Z,14.82
2022-12-03T02:16:30.175Z,15.00
2022-12-03T02:18:58.045Z,15.02
2022-12-03T02:21:45.786Z,14.65
2022-12-03T02:24:27.253Z,14.10
2022-12-03T02:26:53.941Z,14.95
2022-12-03T02:29:20.652Z,15.15
2022-12-03T02:31:47.453Z,15.07
2022-12-03T02:34:43.573Z,14.68
2022-12-03T02:37:38.644Z,14.02
2022-12-03T02:40:10.266Z,14.20
2022-12-03T02:42:37.092Z,14.48
2022-12-03T02:45:08.993Z,14.90
2022-12-03T02:47:47.309Z,14.90
2022-12-03T02:50:17.517Z,14.25
2022-12-03T02:52:46.106Z,16.38
2022-12-03T02:55:16.662Z,14.75
2022-12-03T02:57:47.293Z,15.00
2022-12-03T03:00:15.211Z,15.07
2022-12-03T03:02:42.371Z,15.50
2022-12-03T03:05:11.938Z,15.20
2022-12-03T03:07:39.766Z,15.63
2022-12-03T03:10:08.885Z,14.82
2022-12-03T03:12:39.229Z,13.73
2022-12-03T03:15:08.128Z,14.27
2022-12-03T03:17:35.234Z,13.60
2022-12-03T03:20:03.761Z,14.52
2022-12-03T03:22:34.964Z,15.07
2022-12-03T03:25:02.050Z,14.05
2022-12-03T03:27:29.598Z,15.13
2022-12-03T03:29:58.857Z,15.20
2022-12-03T03:32:26.737Z,15.20
2022-12-03T03:34:54.004Z,14.43
2022-12-03T03:37:21.267Z,14.40
2022-12-03T03:39:48.101Z,14.45
2022-12-03T03:42:15.094Z,14.68
2022-12-03T03:44:41.911Z,15.50
2022-12-03T03:47:08.902Z,15.88
2022-12-03T03:49:36.011Z,14.35
2022-12-03T03:52:03.748Z,15.75
2022-12-03T03:54:30.645Z,15.40
2022-12-03T03:56:57.535Z,15.32
2022-12-03T03:59:24.392Z,15.65
2022-12-03T04:01:51.751Z,14.88
2022-12-03T04:04:23.871Z,16.02
2022-12-03T04:06:50.576Z,14.95
2022-12-03T04:09:17.277Z,14.50
2022-12-03T04:12:02.901Z,14.90
2022-12-03T04:14:29.598Z,15.15
2022-12-03T04:16:56.283Z,15.48
2022-12-03T04:19:23.042Z,16.40
2022-12-03T04:22:08.527Z,15.85
2022-12-03T04:24:35.289Z,16.17
2022-12-03T04:27:20.548Z,16.35
2022-12-03T04:29:47.272Z,15.80
2022-12-03T04:32:32.974Z,15.70
2022-12-03T04:35:18.404Z,15.80
2022-12-03T04:37:45.121Z,16.90
2022-12-03T04:40:30.360Z,15.48
2022-12-03T04:42:57.105Z,16.40
2022-12-03T04:45:23.924Z,16.02
2022-12-03T04:47:50.635Z,15.48
2022-12-03T04:50:17.309Z,15.73
2022-12-03T04:52:44.046Z,16.83
2022-12-03T04:55:10.728Z,16.77
2022-12-03T04:57:37.494Z,16.60
2022-12-03T05:00:05.470Z,14.10
2022-12-03T05:02:32.238Z,16.65
2022-12-03T05:04:59.081Z,15.75
2022-12-03T05:07:25.860Z,15.73
2022-12-03T05:09:52.567Z,14.23
2022-12-03T05:12:19.276Z,13.98
2022-12-03T05:14:45.960Z,14.43
2022-12-03T05:17:12.712Z,15.07
2022-12-03T05:19:58.307Z,14.32
2022-12-03T05:22:25.017Z,14.45
2022-12-03T05:24:52.006Z,14.98
2022-12-03T05:27:23.382Z,14.63
2022-12-03T05:29:50.347Z,15.63
2022-12-03T05:32:17.085Z,15.27
2022-12-03T05:34:43.763Z,15.07
2022-12-03T05:37:11.089Z,16.80
2022-12-03T05:39:38.008Z,15.45
2022-12-03T05:42:23.569Z,15.65
2022-12-03T05:44:50.246Z,16.17
2022-12-03T05:47:16.943Z,16.80
2022-12-03T05:49:43.583Z,15.73
2022-12-03T05:52:10.343Z,15.85
2022-12-03T05:54:37.036Z,15.55
2022-12-03T05:57:03.978Z,16.05
2022-12-03T05:59:30.703Z,16.85
2022-12-03T06:01:57.480Z,16.73
2022-12-03T06:04:24.138Z,15.45
2022-12-03T06:06:50.808Z,16.60
2022-12-03T06:09:17.543Z,17.00
2022-12-03T06:11:44.245Z,15.20
2022-12-03T06:14:10.898Z,15.45
2022-12-03T06:16:37.634Z,15.30
2022-12-03T06:19:04.344Z,15.63
2022-12-03T06:21:31.024Z,16.33
2022-12-03T06:23:57.735Z,16.65
2022-12-03T06:26:24.456Z,16.48
2022-12-03T06:28:51.141Z,16.20
2022-12-03T06:31:17.914Z,16.17
2022-12-03T06:33:59.749Z,16.00
2022-12-03T06:36:27.724Z,15.48
2022-12-03T06:38:54.902Z,16.13
2022-12-03T06:41:21.566Z,14.85
2022-12-03T06:43:48.251Z,15.30
2022-12-03T06:46:14.924Z,15.43
2022-12-03T06:48:41.676Z,15.38
2022-12-03T06:51:08.334Z,14.50
2022-12-03T06:53:35.041Z,15.32
2022-12-03T06:56:01.736Z,15.60
2022-12-03T06:58:28.416Z,15.32
2022-12-03T07:00:55.053Z,15.75
2022-12-03T07:03:21.808Z,16.13
2022-12-03T07:05:48.517Z,14.15
2022-12-03T07:08:15.288Z,15.95
2022-12-03T07:10:43.388Z,14.80
2022-12-03T07:13:10.170Z,14.75
2022-12-03T07:15:37.195Z,15.45
2022-12-03T07:18:04.004Z,16.38
2022-12-03T07:20:30.796Z,16.85
2022-12-03T07:22:57.593Z,16.42
2022-12-03T07:25:24.267Z,14.73
2022-12-03T07:27:50.955Z,16.13
2022-12-03T07:30:17.961Z,15.88
2022-12-03T07:32:44.674Z,16.77
2022-12-03T07:35:11.640Z,16.50
2022-12-03T07:37:38.335Z,15.38
2022-12-03T07:40:06.256Z,17.05
2022-12-03T07:42:32.974Z,15.02
2022-12-03T07:44:59.687Z,15.45
2022-12-03T07:47:26.377Z,16.83
2022-12-03T07:49:53.085Z,16.80
2022-12-03T07:52:19.740Z,15.77
2022-12-03T07:54:46.444Z,15.93
2022-12-03T07:57:13.194Z,16.30
2022-12-03T07:59:39.925Z,16.00
2022-12-03T08:02:06.724Z,16.70
2022-12-03T08:04:33.502Z,15.38
2022-12-03T08:07:00.169Z,16.42
2022-12-03T08:09:26.902Z,16.83
2022-12-03T08:11:53.949Z,17.35
2022-12-03T08:14:20.909Z,16.10
2022-12-03T08:16:48.891Z,17.17
2022-12-03T08:19:17.525Z,16.00
2022-12-03T08:21:44.678Z,16.85
2022-12-03T08:24:15.691Z,16.65
2022-12-03T08:26:44.337Z,16.20
2022-12-03T08:29:12.809Z,16.77
2022-12-03T08:31:40.561Z,16.65
2022-12-03T08:34:13.412Z,18.63
2022-12-03T08:36:40.171Z,17.30
2022-12-03T08:39:27.385Z,18.08
2022-12-03T08:42:15.098Z,18.05
2022-12-03T08:44:41.751Z,17.67
2022-12-03T08:47:19.565Z,17.30
2022-12-03T08:49:58.541Z,18.20
2022-12-03T08:52:32.062Z,17.77
2022-12-03T08:55:00.077Z,17.27
2022-12-03T08:57:32.342Z,18.90
2022-12-03T09:00:20.620Z,16.80
2022-12-03T09:03:00.950Z,16.63
2022-12-03T09:05:30.792Z,18.13
2022-12-03T09:07:57.631Z,17.35
2022-12-03T09:10:24.410Z,16.83
2022-12-03T09:12:51.178Z,18.23
2022-12-03T09:15:17.942Z,16.88
2022-12-03T09:17:44.632Z,16.95
2022-12-03T09:20:11.842Z,17.63
2022-12-03T09:22:38.526Z,19.63
2022-12-03T09:25:05.733Z,18.30
2022-12-03T09:27:32.425Z,17.50
2022-12-03T09:29:59.237Z,17.35
2022-12-03T09:32:26.063Z,16.98
2022-12-03T09:34:53.745Z,19.08
2022-12-03T09:37:22.131Z,18.55
2022-12-03T09:39:49.016Z,18.67
2022-12-03T09:42:15.881Z,18.05
2022-12-03T09:44:42.858Z,17.40
2022-12-03T09:47:09.777Z,18.65
2022-12-03T09:49:38.351Z,18.48
2022-12-03T09:52:06.396Z,17.52
2022-12-03T09:54:33.861Z,17.30
2022-12-03T09:57:04.120Z,17.58
2022-12-03T09:59:33.213Z,18.20
2022-12-03T10:02:00.649Z,18.63
2022-12-03T10:04:29.002Z,17.75
2022-12-03T10:06:58.801Z,18.63
2022-12-03T10:09:28.009Z,18.58
2022-12-03T10:11:57.201Z,16.45
2022-12-03T10:14:24.504Z,18.15
2022-12-03T10:16:51.426Z,18.15
2022-12-03T10:19:27.503Z,17.45
2022-12-03T10:21:55.616Z,16.75
2022-12-03T10:24:22.322Z,16.42
2022-12-03T10:26:52.329Z,17.38
2022-12-03T10:29:33.201Z,17.85
2022-12-03T10:32:06.373Z,17.67
2022-12-03T10:34:37.072Z,17.52
2022-12-03T10:37:10.006Z,19.15
2022-12-03T10:39:56.267Z,18.95
2022-12-03T10:42:25.074Z,17.75
2022-12-03T10:45:23.279Z,16.30
2022-12-03T10:48:20.679Z,16.35
2022-12-03T10:50:48.457Z,17.10
2022-12-03T10:53:15.848Z,16.73
2022-12-03T10:55:44.936Z,16.50
2022-12-03T10:58:23.633Z,16.95
2022-12-03T11:00:52.495Z,16.45
2022-12-03T11:03:24.707Z,18.05
2022-12-03T11:05:52.511Z,17.73
2022-12-03T11:08:22.774Z,17.55
2022-12-03T11:11:04.679Z,19.80
2022-12-03T11:13:34.310Z,18.85
2022-12-03T11:16:03.090Z,16.83
2022-12-03T11:18:39.044Z,18.23
2022-12-03T11:21:08.700Z,17.77
2022-12-03T11:24:02.618Z,17.25
2022-12-03T11:26:29.309Z,18.17
2022-12-03T11:28:57.854Z,18.15
2022-12-03T11:31:44.978Z,18.63
2022-12-03T11:34:20.765Z,17.70
2022-12-03T11:37:12.210Z,16.60
2022-12-03T11:39:45.213Z,19.45
2022-12-03T11:42:26.859Z,18.60
2022-12-03T11:45:05.537Z,18.05
2022-12-03T11:47:41.938Z,17.95
2022-12-03T11:50:22.325Z,17.42
2022-12-03T11:55:28.650Z,16.50
2022-12-03T11:58:00.841Z,17.15
2022-12-03T12:00:28.125Z,15.82
2022-12-03T12:02:57.896Z,15.43
2022-12-03T12:05:33.376Z,16.15
2022-12-03T12:08:02.749Z,16.63
2022-12-03T12:10:49.330Z,15.20
2022-12-03T12:13:31.116Z,14.23
2022-12-03T12:16:04.149Z,13.45
2022-12-03T12:18:55.800Z,14.30
2022-12-03T12:21:48.895Z,13.98
2022-12-03T12:24:46.393Z,14.02
2022-12-03T12:27:18.554Z,13.48
2022-12-03T12:29:50.516Z,13.65
2022-12-03T12:32:19.640Z,13.45
2022-12-03T12:34:48.995Z,12.20
2022-12-03T12:37:36.705Z,12.43
2022-12-03T12:40:15.727Z,11.93
2022-12-03T12:43:09.989Z,11.52
2022-12-03T12:45:41.847Z,11.10
2022-12-03T12:48:28.005Z,12.18
2022-12-03T12:51:07.765Z,12.00
2022-12-03T12:53:36.423Z,11.30
2022-12-03T12:56:23.344Z,11.90
2022-12-03T12:58:50.350Z,11.75
2022-12-03T13:01:29.166Z,12.45
2022-12-03T13:03:56.871Z,12.57
2022-12-03T13:06:30.648Z,13.32
2022-12-03T13:08:58.725Z,12.95
2022-12-03T13:11:25.406Z,11.88
2022-12-03T13:13:52.487Z,13.38
2022-12-03T13:16:32.678Z,14.13
2022-12-03T13:19:01.088Z,13.20
2022-12-03T13:21:42.455Z,12.80
2022-12-03T13:24:31.489Z,13.45
2022-12-03T13:27:02.318Z,11.95
2022-12-03T13:29:29.105Z,11.93
2022-12-03T13:31:58.629Z,12.65
2022-12-03T13:34:31.095Z,11.85
2022-12-03T13:36:59.619Z,12.02
2022-12-03T13:39:32.625Z,11.38
2022-12-03T13:42:39.123Z,13.18
2022-12-03T13:45:14.990Z,11.98
2022-12-03T13:47:44.186Z,12.63
2022-12-03T13:50:34.819Z,12.57
2022-12-03T13:53:14.844Z,11.73
2022-12-03T13:55:47.334Z,12.55
2022-12-03T13:58:13.998Z,13.18
2022-12-03T14:00:40.754Z,11.90
2022-12-03T14:03:07.503Z,12.82
2022-12-03T14:05:34.152Z,14.05
2022-12-03T14:08:04.813Z,13.93
2022-12-03T14:10:31.635Z,12.90
2022-12-03T14:12:58.656Z,13.25
2022-12-03T14:15:26.409Z,13.38
2022-12-03T14:17:53.428Z,13.85
2022-12-03T14:20:20.352Z,13.57
2022-12-03T14:22:47.066Z,14.10
2022-12-03T14:25:13.783Z,15.60
2022-12-03T14:27:40.450Z,17.65
2022-12-03T14:30:07.971Z,17.27
2022-12-03T14:32:34.757Z,16.05
2022-12-03T14:35:06.591Z,18.80
2022-12-03T14:37:36.355Z,18.13
2022-12-03T14:40:03.854Z,18.83
2022-12-03T14:42:30.582Z,18.48
2022-12-03T14:44:57.558Z,18.77
2022-12-03T14:47:24.250Z,18.30
2022-12-03T14:49:52.616Z,16.50
2022-12-03T14:52:19.965Z,17.30
2022-12-03T14:54:46.709Z,18.63
2022-12-03T14:57:15.452Z,17.33
2022-12-03T14:59:43.362Z,17.52
2022-12-03T15:02:11.136Z,16.83
2022-12-03T15:04:38.674Z,17.27
2022-12-03T15:07:05.480Z,16.55
2022-12-03T15:09:32.275Z,15.80
2022-12-03T15:11:59.979Z,17.33
2022-12-03T15:14:26.996Z,15.65
2022-12-03T15:16:53.825Z,15.75
2022-12-03T15:19:21.177Z,17.48
2022-12-03T15:21:47.881Z,16.77
2022-12-03T15:24:14.593Z,15.10
2022-12-03T15:26:41.269Z,16.20
2022-12-03T15:29:07.904Z,14.48
2022-12-03T15:31:34.897Z,15.80
2022-12-03T15:34:01.811Z,15.65
2022-12-03T15:36:28.579Z,14.77
2022-12-03T15:38:55.355Z,15.50
2022-12-03T15:41:24.308Z,14.93
2022-12-03T15:43:55.259Z,13.40
2022-12-03T15:46:22.217Z,14.45
2022-12-03T15:48:49.284Z,13.85
2022-12-03T15:51:16.090Z,13.75
2022-12-03T15:53:42.882Z,15.30
2022-12-03T15:56:11.784Z,13.02
2022-12-03T15:58:39.397Z,12.60
2022-12-03T16:01:06.735Z,12.90
2022-12-03T16:03:33.537Z,13.35
2022-12-03T16:06:00.295Z,13.68
2022-12-03T16:08:27.084Z,13.77
2022-12-03T16:10:53.984Z,13.07
2022-12-03T16:13:20.659Z,14.98
2022-12-03T16:15:47.425Z,15.13
2022-12-03T16:18:17.528Z,16.58
2022-12-03T16:20:44.279Z,15.02
2022-12-03T16:23:10.974Z,18.25
2022-12-03T16:25:37.733Z,18.48
2022-12-03T16:28:04.432Z,16.15
2022-12-03T16:30:31.168Z,18.92
2022-12-03T16:32:57.959Z,18.25
2022-12-03T16:35:24.881Z,17.83
2022-12-03T16:37:51.601Z,19.45
2022-12-03T16:40:18.406Z,17.98
2022-12-03T16:42:45.142Z,20.20
2022-12-03T16:45:23.083Z,18.80
2022-12-03T16:47:50.214Z,19.77
2022-12-03T16:50:24.422Z,20.45
2022-12-03T16:52:55.838Z,19.30
2022-12-03T16:55:22.672Z,19.80
2022-12-03T16:57:49.460Z,20.77
2022-12-03T17:00:16.949Z,19.20
2022-12-03T17:02:43.683Z,18.73
2022-12-03T17:05:10.419Z,20.27
2022-12-03T17:07:37.324Z,20.35
2022-12-03T17:10:04.734Z,20.67
2022-12-03T17:12:54.183Z,21.15
2022-12-03T17:15:18.154Z,20.60
2022-12-03T17:17:45.991Z,20.23
2022-12-03T17:20:14.620Z,20.63
2022-12-03T17:22:41.714Z,21.50
2022-12-03T17:25:09.144Z,19.35
2022-12-03T17:27:39.664Z,18.75
2022-12-03T17:30:11.034Z,19.70
2022-12-03T17:32:37.802Z,18.10
2022-12-03T17:35:04.880Z,20.90
2022-12-03T17:37:31.553Z,18.40
2022-12-03T17:39:58.254Z,19.38
2022-12-03T17:42:24.943Z,20.50
2022-12-03T17:44:51.715Z,21.50
2022-12-03T17:47:18.433Z,19.08
2022-12-03T17:49:45.084Z,20.90
2022-12-03T17:52:11.871Z,21.25
2022-12-03T17:55:08.602Z,20.77
2022-12-03T17:57:25.513Z,20.90
2022-12-03T17:59:52.590Z,19.08
2022-12-03T18:02:19.562Z,19.52
2022-12-03T18:04:46.366Z,20.33
2022-12-03T18:07:13.053Z,21.80
2022-12-03T18:09:39.702Z,20.80
2022-12-03T18:12:06.773Z,21.55
2022-12-03T18:14:33.511Z,21.73
2022-12-03T18:17:00.224Z,19.92
2022-12-03T18:19:26.938Z,19.63
2022-12-03T18:21:54.429Z,21.65
2022-12-03T18:24:21.877Z,19.55
2022-12-03T18:26:48.582Z,19.55
2022-12-03T18:29:15.260Z,21.08
2022-12-03T18:31:42.059Z,22.25
2022-12-03T18:34:08.849Z,20.05
2022-12-03T18:36:36.634Z,20.70
2022-12-03T18:39:05.973Z,20.40
2022-12-03T18:41:33.726Z,21.67
2022-12-03T18:44:03.334Z,19.02
2022-12-03T18:46:51.659Z,19.00
2022-12-03T18:49:17.735Z,19.80
2022-12-03T18:51:44.442Z,19.08
2022-12-03T18:54:13.344Z,18.60
2022-12-03T18:56:41.196Z,18.27
2022-12-03T18:59:08.090Z,19.75
2022-12-03T19:01:35.448Z,19.70
2022-12-03T19:04:02.611Z,19.52
2022-12-03T19:06:30.517Z,20.67
2022-12-03T19:08:57.604Z,19.33
2022-12-03T19:11:24.375Z,19.45
2022-12-03T19:13:51.808Z,19.02
2022-12-03T19:16:19.094Z,17.75
2022-12-03T19:18:45.975Z,18.70
2022-12-03T19:21:15.069Z,20.45
2022-12-03T19:23:47.312Z,20.42
2022-12-03T19:26:25.777Z,17.95
2022-12-03T19:28:53.825Z,18.88
2022-12-03T19:31:20.961Z,17.88
2022-12-03T19:33:48.290Z,18.45
2022-12-03T19:36:26.348Z,19.35
2022-12-03T19:38:57.376Z,19.17
2022-12-03T19:41:27.249Z,19.23
2022-12-03T19:43:55.389Z,19.92
2022-12-03T19:46:24.372Z,18.45
2022-12-03T19:48:51.502Z,17.50
2022-12-03T19:51:34.226Z,19.77
2022-12-03T19:54:02.838Z,20.65
2022-12-03T19:56:30.404Z,19.73
2022-12-03T19:58:57.930Z,20.00
2022-12-03T20:01:27.816Z,20.23
2022-12-03T20:03:57.408Z,20.67
2022-12-03T20:06:26.599Z,20.00
2022-12-03T20:09:01.698Z,19.98
2022-12-03T20:11:31.205Z,20.67
2022-12-03T20:14:00.182Z,19.87
2022-12-03T20:16:28.493Z,21.05
2022-12-03T20:19:04.160Z,20.52
2022-12-03T20:21:33.270Z,18.92
2022-12-03T20:24:00.661Z,19.92
2022-12-03T20:26:27.841Z,19.83
2022-12-03T20:28:55.957Z,19.63
2022-12-03T20:31:25.505Z,20.73
2022-12-03T20:33:56.270Z,19.17
2022-12-03T20:36:23.622Z,19.55
2022-12-03T20:39:01.501Z,21.98
2022-12-03T20:41:28.775Z,21.52
2022-12-03T20:43:55.907Z,21.88
2022-12-03T20:46:24.089Z,19.90
2022-12-03T20:48:51.619Z,20.35
2022-12-03T20:51:20.451Z,19.92
2022-12-03T20:53:47.811Z,19.50
2022-12-03T20:56:23.393Z,22.88
2022-12-03T20:58:50.836Z,20.70
2022-12-03T21:01:23.883Z,19.35
2022-12-03T21:03:51.884Z,20.40
2022-12-03T21:06:19.557Z,19.83
2022-12-03T21:08:46.804Z,20.85
2022-12-03T21:11:16.370Z,23.48
2022-12-03T21:13:44.177Z,21.63
2022-12-03T21:16:26.121Z,19.67
2022-12-03T21:19:07.164Z,19.13
2022-12-03T21:21:35.116Z,19.80
2022-12-03T21:24:01.907Z,21.80
2022-12-03T21:26:28.858Z,20.52
2022-12-03T21:28:55.757Z,19.65
2022-12-03T21:31:26.107Z,21.52
2022-12-03T21:36:20.899Z,20.80
2022-12-03T21:38:48.209Z,20.38
2022-12-03T21:41:15.020Z,18.98
2022-12-03T21:43:42.666Z,19.67
2022-12-03T21:47:11.641Z,21.10
2022-12-03T21:48:59.936Z,20.77
2022-12-03T21:51:26.693Z,20.98
2022-12-03T21:53:53.633Z,19.17
2022-12-03T21:56:20.496Z,21.20
2022-12-03T21:58:47.662Z,20.75
2022-12-03T22:01:24.471Z,20.30
2022-12-03T22:03:51.626Z,19.42
2022-12-03T22:06:18.803Z,19.75
2022-12-03T22:08:45.931Z,19.73
2022-12-03T22:11:21.330Z,20.58
2022-12-03T22:13:48.727Z,20.63
2022-12-03T22:16:19.413Z,19.75
2022-12-03T22:18:46.675Z,20.85
2022-12-03T22:21:16.130Z,19.30
2022-12-03T22:23:42.938Z,19.57
2022-12-03T22:26:13.207Z,19.92
2022-12-03T22:28:44.033Z,20.48
2022-12-03T22:31:11.329Z,19.88
2022-12-03T22:33:38.740Z,19.10
2022-12-03T22:36:08.338Z,20.40
2022-12-03T22:38:35.360Z,20.05
2022-12-03T22:41:06.268Z,21.17
2022-12-03T22:43:33.379Z,19.80
2022-12-03T22:46:00.165Z,20.15
2022-12-03T22:48:26.886Z,20.85
2022-12-03T22:50:53.599Z,22.30
2022-12-03T22:53:20.537Z,21.13
2022-12-03T22:56:00.459Z,21.52
2022-12-03T22:58:28.496Z,21.50
2022-12-03T23:01:02.377Z,21.67
2022-12-03T23:03:29.735Z,24.20
2022-12-03T23:05:56.716Z,25.75
2022-12-03T23:08:23.568Z,20.98
2022-12-03T23:10:52.306Z,21.38
2022-12-03T23:13:20.237Z,22.95
2022-12-03T23:15:49.028Z,20.98
2022-12-03T23:18:16.470Z,19.42
2022-12-03T23:20:48.005Z,21.33
2022-12-03T23:23:15.277Z,21.40
2022-12-03T23:25:42.093Z,21.30
2022-12-03T23:28:09.827Z,22.42
2022-12-03T23:30:37.569Z,22.00
2022-12-03T23:33:05.941Z,22.75
2022-12-03T23:35:32.996Z,21.50
2022-12-03T23:37:59.750Z,21.60
2022-12-03T23:40:26.510Z,22.42
2022-12-03T23:42:53.248Z,20.90
2022-12-03T23:45:20.056Z,21.95
2022-12-03T23:47:46.793Z,23.45
2022-12-03T23:50:13.483Z,21.42
2022-12-03T23:52:40.207Z,22.08
2022-12-03T23:55:07.099Z,19.92
2022-12-03T23:57:34.586Z,22.55
